sensor_id;sensor_type;location;lat;lon;timestamp;pressure;altitude;pressure_sealevel;temperature;humidity
30967;BME280;17649;51.836;8.330;2023-07-02T00:02:14;100075.41;;;18.20;100.00
30967;BME280;17649;51.836;8.330;2023-07-02T00:05:14;100085.91;;;18.20;100.00
30967;BME280;17649;51.836;8.330;2023-07-02T00:08:15;100077.69;;;18.05;100.00
30967;BME280;17649;51.836;8.330;2023-07-02T00:11:16;100075.22;;;18.04;100.00
30967;BME280;17649;51.836;8.330;2023-07-02T00:14:16;100075.56;;;18.18;100.00
30967;BME280;17649;51.836;8.330;2023-07-02T00:17:16;100073.94;;;18.17;100.00
30967;BME280;17649;51.836;8.330;2023-07-02T00:20:16;100066.25;;;18.06;100.00
30967;BME280;17649;51.836;8.330;2023-07-02T00:23:17;100061.22;;;17.95;100.00
30967;BME280;17649;51.836;8.330;2023-07-02T00:26:17;100064.41;;;17.89;100.00
30967;BME280;17649;51.836;8.330;2023-07-02T00:29:17;100069.22;;;17.94;100.00
30967;BME280;17649;51.836;8.330;2023-07-02T00:32:18;100071.00;;;17.93;100.00
30967;BME280;17649;51.836;8.330;2023-07-02T00:35:18;100073.75;;;18.01;100.00
30967;BME280;17649;51.836;8.330;2023-07-02T00:38:19;100063.03;;;17.85;100.00
30967;BME280;17649;51.836;8.330;2023-07-02T00:41:19;100064.22;;;18.00;100.00
30967;BME280;17649;51.836;8.330;2023-07-02T00:44:20;100063.44;;;17.90;100.00
30967;BME280;17649;51.836;8.330;2023-07-02T00:47:20;100060.31;;;17.86;100.00
30967;BME280;17649;51.836;8.330;2023-07-02T00:50:21;100060.75;;;18.00;100.00
30967;BME280;17649;51.836;8.330;2023-07-02T00:53:22;100056.63;;;18.07;100.00
30967;BME280;17649;51.836;8.330;2023-07-02T00:56:24;100058.06;;;17.92;100.00
30967;BME280;17649;51.836;8.330;2023-07-02T00:59:24;100057.25;;;17.91;100.00
30967;BME280;17649;51.836;8.330;2023-07-02T01:02:25;100058.84;;;17.74;100.00
30967;BME280;17649;51.836;8.330;2023-07-02T01:05:27;100057.84;;;17.66;100.00
30967;BME280;17649;51.836;8.330;2023-07-02T01:08:32;100058.69;;;17.76;100.00
30967;BME280;17649;51.836;8.330;2023-07-02T01:12:03;100073.72;;;17.74;100.00
30967;BME280;17649;51.836;8.330;2023-07-02T01:15:06;100073.50;;;17.85;100.00
30967;BME280;17649;51.836;8.330;2023-07-02T01:18:07;100065.03;;;17.73;100.00
30967;BME280;17649;51.836;8.330;2023-07-02T01:21:08;100055.69;;;17.71;100.00
30967;BME280;17649;51.836;8.330;2023-07-02T01:24:08;100062.13;;;17.76;100.00
30967;BME280;17649;51.836;8.330;2023-07-02T01:27:08;100060.34;;;17.77;100.00
30967;BME280;17649;51.836;8.330;2023-07-02T01:30:10;100053.75;;;17.63;100.00
30967;BME280;17649;51.836;8.330;2023-07-02T01:33:11;100043.97;;;17.75;100.00
30967;BME280;17649;51.836;8.330;2023-07-02T01:36:11;100044.88;;;17.83;100.00
30967;BME280;17649;51.836;8.330;2023-07-02T01:39:12;100042.72;;;17.69;100.00
30967;BME280;17649;51.836;8.330;2023-07-02T01:42:17;100044.38;;;17.70;100.00
30967;BME280;17649;51.836;8.330;2023-07-02T01:45:17;100042.75;;;17.59;100.00
30967;BME280;17649;51.836;8.330;2023-07-02T01:48:18;100035.72;;;17.60;100.00
30967;BME280;17649;51.836;8.330;2023-07-02T01:51:18;100028.84;;;17.59;100.00
30967;BME280;17649;51.836;8.330;2023-07-02T01:54:20;100031.84;;;17.27;100.00
30967;BME280;17649;51.836;8.330;2023-07-02T01:57:20;100041.03;;;17.31;100.00
30967;BME280;17649;51.836;8.330;2023-07-02T02:00:21;100034.56;;;17.35;100.00
30967;BME280;17649;51.836;8.330;2023-07-02T02:03:22;100043.50;;;17.42;100.00
30967;BME280;17649;51.836;8.330;2023-07-02T02:06:22;100048.97;;;17.49;100.00
30967;BME280;17649;51.836;8.330;2023-07-02T02:09:22;100046.13;;;17.42;100.00
30967;BME280;17649;51.836;8.330;2023-07-02T02:12:23;100051.38;;;17.23;100.00
30967;BME280;17649;51.836;8.330;2023-07-02T02:15:23;100064.97;;;17.36;100.00
30967;BME280;17649;51.836;8.330;2023-07-02T02:18:23;100061.09;;;17.40;100.00
30967;BME280;17649;51.836;8.330;2023-07-02T02:21:24;100075.28;;;17.38;100.00
30967;BME280;17649;51.836;8.330;2023-07-02T02:24:24;100068.09;;;17.49;100.00
30967;BME280;17649;51.836;8.330;2023-07-02T02:27:25;100070.47;;;17.43;100.00
30967;BME280;17649;51.836;8.330;2023-07-02T02:30:25;100076.34;;;17.54;100.00
30967;BME280;17649;51.836;8.330;2023-07-02T02:33:26;100064.50;;;17.50;100.00
30967;BME280;17649;51.836;8.330;2023-07-02T02:36:26;100064.06;;;17.65;100.00
30967;BME280;17649;51.836;8.330;2023-07-02T02:39:26;100074.00;;;17.61;100.00
30967;BME280;17649;51.836;8.330;2023-07-02T02:42:27;100066.69;;;17.65;100.00
30967;BME280;17649;51.836;8.330;2023-07-02T02:45:27;100062.25;;;17.65;100.00
30967;BME280;17649;51.836;8.330;2023-07-02T02:48:27;100056.78;;;17.68;100.00
30967;BME280;17649;51.836;8.330;2023-07-02T02:51:28;100067.81;;;17.72;100.00
30967;BME280;17649;51.836;8.330;2023-07-02T02:54:28;100054.44;;;17.75;100.00
30967;BME280;17649;51.836;8.330;2023-07-02T02:57:28;100050.47;;;17.71;100.00
30967;BME280;17649;51.836;8.330;2023-07-02T03:00:29;100043.88;;;17.57;100.00
30967;BME280;17649;51.836;8.330;2023-07-02T03:03:29;100049.66;;;17.51;100.00
30967;BME280;17649;51.836;8.330;2023-07-02T03:06:30;100042.84;;;17.68;100.00
30967;BME280;17649;51.836;8.330;2023-07-02T03:09:30;100050.88;;;17.56;100.00
30967;BME280;17649;51.836;8.330;2023-07-02T03:12:30;100054.31;;;17.57;100.00
30967;BME280;17649;51.836;8.330;2023-07-02T03:15:31;100049.63;;;17.61;100.00
30967;BME280;17649;51.836;8.330;2023-07-02T03:18:31;100059.81;;;17.73;100.00
30967;BME280;17649;51.836;8.330;2023-07-02T03:21:31;100058.31;;;17.61;100.00
30967;BME280;17649;51.836;8.330;2023-07-02T03:24:32;100056.78;;;17.58;100.00
30967;BME280;17649;51.836;8.330;2023-07-02T03:27:32;100059.13;;;17.71;100.00
30967;BME280;17649;51.836;8.330;2023-07-02T03:30:33;100054.84;;;17.61;100.00
30967;BME280;17649;51.836;8.330;2023-07-02T03:33:33;100067.50;;;17.65;100.00
30967;BME280;17649;51.836;8.330;2023-07-02T03:36:33;100067.50;;;17.65;100.00
30967;BME280;17649;51.836;8.330;2023-07-02T03:39:34;100064.13;;;17.45;100.00
30967;BME280;17649;51.836;8.330;2023-07-02T03:42:34;100069.88;;;17.58;100.00
30967;BME280;17649;51.836;8.330;2023-07-02T03:45:34;100067.25;;;17.58;100.00
30967;BME280;17649;51.836;8.330;2023-07-02T03:48:35;100072.78;;;17.46;100.00
30967;BME280;17649;51.836;8.330;2023-07-02T03:51:35;100071.66;;;17.58;100.00
30967;BME280;17649;51.836;8.330;2023-07-02T03:54:35;100068.31;;;17.66;100.00
30967;BME280;17649;51.836;8.330;2023-07-02T03:57:36;100074.94;;;17.70;100.00
30967;BME280;17649;51.836;8.330;2023-07-02T04:00:36;100068.34;;;17.75;100.00
30967;BME280;17649;51.836;8.330;2023-07-02T04:03:36;100076.31;;;17.64;100.00
30967;BME280;17649;51.836;8.330;2023-07-02T04:06:37;100081.31;;;17.57;100.00
30967;BME280;17649;51.836;8.330;2023-07-02T04:09:37;100082.44;;;17.45;100.00
30967;BME280;17649;51.836;8.330;2023-07-02T04:12:37;100093.19;;;17.42;100.00
30967;BME280;17649;51.836;8.330;2023-07-02T04:15:38;100093.44;;;17.39;100.00
30967;BME280;17649;51.836;8.330;2023-07-02T04:18:38;100092.59;;;17.48;100.00
30967;BME280;17649;51.836;8.330;2023-07-02T04:21:38;100093.44;;;17.49;100.00
30967;BME280;17649;51.836;8.330;2023-07-02T04:24:39;100100.66;;;17.27;100.00
30967;BME280;17649;51.836;8.330;2023-07-02T04:27:39;100114.88;;;17.52;100.00
30967;BME280;17649;51.836;8.330;2023-07-02T04:30:39;100137.75;;;17.60;100.00
30967;BME280;17649;51.836;8.330;2023-07-02T04:33:40;100135.78;;;17.81;100.00
30967;BME280;17649;51.836;8.330;2023-07-02T04:36:40;100122.81;;;17.90;100.00
30967;BME280;17649;51.836;8.330;2023-07-02T04:39:40;100131.63;;;17.88;100.00
30967;BME280;17649;51.836;8.330;2023-07-02T04:42:42;100133.47;;;17.78;100.00
30967;BME280;17649;51.836;8.330;2023-07-02T04:45:46;100131.50;;;17.80;100.00
30967;BME280;17649;51.836;8.330;2023-07-02T04:48:48;100141.31;;;17.69;100.00
30967;BME280;17649;51.836;8.330;2023-07-02T04:51:48;100144.88;;;17.68;100.00
30967;BME280;17649;51.836;8.330;2023-07-02T04:54:49;100148.47;;;17.67;100.00
30967;BME280;17649;51.836;8.330;2023-07-02T04:57:49;100146.56;;;17.49;100.00
30967;BME280;17649;51.836;8.330;2023-07-02T05:00:49;100153.69;;;17.67;100.00
30967;BME280;17649;51.836;8.330;2023-07-02T05:03:50;100158.09;;;17.66;100.00
30967;BME280;17649;51.836;8.330;2023-07-02T05:06:50;100154.25;;;17.70;100.00
30967;BME280;17649;51.836;8.330;2023-07-02T05:09:51;100158.09;;;17.66;100.00
30967;BME280;17649;51.836;8.330;2023-07-02T05:12:53;100156.19;;;17.78;100.00
30967;BME280;17649;51.836;8.330;2023-07-02T05:15:53;100160.56;;;17.87;100.00
30967;BME280;17649;51.836;8.330;2023-07-02T05:18:53;100165.56;;;17.71;100.00
30967;BME280;17649;51.836;8.330;2023-07-02T05:21:54;100163.06;;;17.79;100.00
30967;BME280;17649;51.836;8.330;2023-07-02T05:24:54;100161.25;;;17.89;100.00
30967;BME280;17649;51.836;8.330;2023-07-02T05:27:54;100164.53;;;18.01;100.00
30967;BME280;17649;51.836;8.330;2023-07-02T05:30:55;100175.91;;;18.09;100.00
30967;BME280;17649;51.836;8.330;2023-07-02T05:33:57;100169.03;;;18.08;100.00
30967;BME280;17649;51.836;8.330;2023-07-02T05:36:57;100162.34;;;18.24;100.00
30967;BME280;17649;51.836;8.330;2023-07-02T05:39:57;100186.78;;;18.14;100.00
30967;BME280;17649;51.836;8.330;2023-07-02T05:42:58;100184.03;;;18.16;100.00
30967;BME280;17649;51.836;8.330;2023-07-02T05:45:58;100178.97;;;18.05;100.00
30967;BME280;17649;51.836;8.330;2023-07-02T05:49:02;100176.50;;;18.03;100.00
30967;BME280;17649;51.836;8.330;2023-07-02T05:52:02;100180.78;;;17.95;100.00
30967;BME280;17649;51.836;8.330;2023-07-02T05:55:03;100184.44;;;17.74;100.00
30967;BME280;17649;51.836;8.330;2023-07-02T05:58:03;100186.56;;;17.98;100.00
30967;BME280;17649;51.836;8.330;2023-07-02T06:01:04;100184.53;;;18.57;100.00
30967;BME280;17649;51.836;8.330;2023-07-02T06:04:06;100191.78;;;18.45;100.00
30967;BME280;17649;51.836;8.330;2023-07-02T06:07:06;100190.69;;;18.38;100.00
30967;BME280;17649;51.836;8.330;2023-07-02T06:10:06;100194.38;;;18.17;100.00
30967;BME280;17649;51.836;8.330;2023-07-02T06:13:07;100197.97;;;18.07;100.00
30967;BME280;17649;51.836;8.330;2023-07-02T06:16:07;100198.44;;;18.30;100.00
30967;BME280;17649;51.836;8.330;2023-07-02T06:19:08;100186.25;;;18.48;100.00
30967;BME280;17649;51.836;8.330;2023-07-02T06:22:08;100196.31;;;18.43;100.00
30967;BME280;17649;51.836;8.330;2023-07-02T06:25:08;100190.03;;;17.89;100.00
30967;BME280;17649;51.836;8.330;2023-07-02T06:28:10;100200.16;;;18.11;100.00
30967;BME280;17649;51.836;8.330;2023-07-02T06:31:10;100192.66;;;18.26;100.00
30967;BME280;17649;51.836;8.330;2023-07-02T06:34:10;100191.47;;;18.48;100.00
30967;BME280;17649;51.836;8.330;2023-07-02T06:37:11;100205.13;;;18.79;100.00
30967;BME280;17649;51.836;8.330;2023-07-02T06:40:13;100193.44;;;18.46;100.00
30967;BME280;17649;51.836;8.330;2023-07-02T06:43:13;100185.44;;;18.38;100.00
30967;BME280;17649;51.836;8.330;2023-07-02T06:46:14;100204.25;;;18.24;100.00
30967;BME280;17649;51.836;8.330;2023-07-02T06:49:14;100203.97;;;18.27;100.00
30967;BME280;17649;51.836;8.330;2023-07-02T06:52:15;100214.72;;;18.33;100.00
30967;BME280;17649;51.836;8.330;2023-07-02T06:55:15;100207.13;;;18.67;100.00
30967;BME280;17649;51.836;8.330;2023-07-02T06:58:15;100208.69;;;18.51;100.00
30967;BME280;17649;51.836;8.330;2023-07-02T07:01:16;100221.81;;;18.41;100.00
30967;BME280;17649;51.836;8.330;2023-07-02T07:04:16;100223.69;;;18.58;100.00
30967;BME280;17649;51.836;8.330;2023-07-02T07:07:16;100210.03;;;18.64;100.00
30967;BME280;17649;51.836;8.330;2023-07-02T07:10:17;100213.50;;;18.55;100.00
30967;BME280;17649;51.836;8.330;2023-07-02T07:13:17;100215.44;;;18.53;100.00
30967;BME280;17649;51.836;8.330;2023-07-02T07:16:18;100207.06;;;18.50;100.00
30967;BME280;17649;51.836;8.330;2023-07-02T07:19:18;100212.66;;;18.64;100.00
30967;BME280;17649;51.836;8.330;2023-07-02T07:22:18;100211.38;;;18.96;100.00
30967;BME280;17649;51.836;8.330;2023-07-02T07:25:19;100216.41;;;19.25;100.00
30967;BME280;17649;51.836;8.330;2023-07-02T07:28:19;100212.75;;;19.35;100.00
30967;BME280;17649;51.836;8.330;2023-07-02T07:31:19;100227.72;;;19.25;100.00
30967;BME280;17649;51.836;8.330;2023-07-02T07:34:20;100220.25;;;19.66;100.00
30967;BME280;17649;51.836;8.330;2023-07-02T07:37:20;100224.13;;;19.62;100.00
30967;BME280;17649;51.836;8.330;2023-07-02T07:40:20;100220.75;;;19.52;100.00
30967;BME280;17649;51.836;8.330;2023-07-02T07:43:21;100215.91;;;19.57;100.00
30967;BME280;17649;51.836;8.330;2023-07-02T07:46:21;100203.38;;;19.51;100.00
30967;BME280;17649;51.836;8.330;2023-07-02T07:49:22;100228.75;;;19.32;100.00
30967;BME280;17649;51.836;8.330;2023-07-02T07:52:22;100239.28;;;19.68;100.00
30967;BME280;17649;51.836;8.330;2023-07-02T07:55:22;100225.25;;;19.24;100.00
30967;BME280;17649;51.836;8.330;2023-07-02T07:58:23;100216.03;;;19.38;100.00
30967;BME280;17649;51.836;8.330;2023-07-02T08:01:26;100229.88;;;19.48;100.00
30967;BME280;17649;51.836;8.330;2023-07-02T08:04:26;100224.34;;;19.51;100.00
30967;BME280;17649;51.836;8.330;2023-07-02T08:07:26;100235.84;;;19.93;100.00
30967;BME280;17649;51.836;8.330;2023-07-02T08:10:27;100245.31;;;20.38;100.00
30967;BME280;17649;51.836;8.330;2023-07-02T08:13:27;100242.25;;;20.17;100.00
30967;BME280;17649;51.836;8.330;2023-07-02T08:16:28;100244.03;;;19.90;100.00
30967;BME280;17649;51.836;8.330;2023-07-02T08:19:28;100242.91;;;19.93;100.00
30967;BME280;17649;51.836;8.330;2023-07-02T08:22:28;100256.91;;;20.02;100.00
30967;BME280;17649;51.836;8.330;2023-07-02T08:25:29;100253.06;;;20.14;100.00
30967;BME280;17649;51.836;8.330;2023-07-02T08:28:30;100248.97;;;20.19;100.00
30967;BME280;17649;51.836;8.330;2023-07-02T08:31:30;100254.84;;;19.87;100.00
30967;BME280;17649;51.836;8.330;2023-07-02T08:34:31;100269.25;;;19.83;100.00
30967;BME280;17649;51.836;8.330;2023-07-02T08:37:31;100263.00;;;20.28;100.00
30967;BME280;17649;51.836;8.330;2023-07-02T08:40:31;100259.41;;;20.29;100.00
30967;BME280;17649;51.836;8.330;2023-07-02T08:43:32;100285.84;;;20.53;100.00
30967;BME280;17649;51.836;8.330;2023-07-02T08:46:32;100277.56;;;20.22;96.96
30967;BME280;17649;51.836;8.330;2023-07-02T08:49:33;100273.00;;;20.50;100.00
30967;BME280;17649;51.836;8.330;2023-07-02T08:52:33;100283.84;;;20.30;95.80
30967;BME280;17649;51.836;8.330;2023-07-02T08:55:34;100288.47;;;20.36;94.99
30967;BME280;17649;51.836;8.330;2023-07-02T08:58:34;100281.50;;;20.44;93.10
30967;BME280;17649;51.836;8.330;2023-07-02T09:04:47;100287.09;;;20.41;83.23
30967;BME280;17649;51.836;8.330;2023-07-02T09:07:49;100291.84;;;20.80;81.35
30967;BME280;17649;51.836;8.330;2023-07-02T09:10:50;100285.44;;;20.74;80.52
30967;BME280;17649;51.836;8.330;2023-07-02T09:13:52;100287.19;;;21.00;83.87
30967;BME280;17649;51.836;8.330;2023-07-02T09:17:08;100301.22;;;20.82;78.18
30967;BME280;17649;51.836;8.330;2023-07-02T09:20:09;100290.34;;;20.69;84.67
30967;BME280;17649;51.836;8.330;2023-07-02T09:23:11;100301.63;;;20.62;86.35
30967;BME280;17649;51.836;8.330;2023-07-02T09:26:37;100297.78;;;20.48;nan
30967;BME280;17649;51.836;8.330;2023-07-02T09:29:37;100286.50;;;20.56;83.79
30967;BME280;17649;51.836;8.330;2023-07-02T09:32:38;100281.97;;;21.16;79.57
30967;BME280;17649;51.836;8.330;2023-07-02T09:35:38;100297.31;;;20.87;70.91
30967;BME280;17649;51.836;8.330;2023-07-02T09:38:39;100293.94;;;21.02;66.97
30967;BME280;17649;51.836;8.330;2023-07-02T09:41:41;100301.03;;;21.18;69.28
30967;BME280;17649;51.836;8.330;2023-07-02T09:44:43;100300.50;;;20.64;64.82
30967;BME280;17649;51.836;8.330;2023-07-02T09:47:47;100291.50;;;20.41;72.91
30967;BME280;17649;51.836;8.330;2023-07-02T09:50:49;100298.28;;;20.51;67.18
30967;BME280;17649;51.836;8.330;2023-07-02T09:53:50;100303.56;;;20.86;69.32
30967;BME280;17649;51.836;8.330;2023-07-02T09:56:51;100309.19;;;20.65;70.91
30967;BME280;17649;51.836;8.330;2023-07-02T09:59:51;100314.13;;;20.60;68.69
30967;BME280;17649;51.836;8.330;2023-07-02T10:02:52;100323.75;;;20.51;70.91
30967;BME280;17649;51.836;8.330;2023-07-02T10:06:02;100320.69;;;20.64;70.85
30967;BME280;17649;51.836;8.330;2023-07-02T10:09:02;100317.06;;;20.91;66.54
30967;BME280;17649;51.836;8.330;2023-07-02T10:12:19;100315.13;;;21.51;72.96
30967;BME280;17649;51.836;8.330;2023-07-02T10:15:37;100318.94;;;21.89;62.90
30967;BME280;17649;51.836;8.330;2023-07-02T10:18:39;100321.72;;;21.71;64.94
30967;BME280;17649;51.836;8.330;2023-07-02T10:21:41;100331.13;;;21.16;64.27
30967;BME280;17649;51.836;8.330;2023-07-02T10:24:53;100322.47;;;20.89;68.02
30967;BME280;17649;51.836;8.330;2023-07-02T10:27:54;100332.28;;;20.79;74.84
30967;BME280;17649;51.836;8.330;2023-07-02T10:30:55;100323.31;;;20.98;69.95
30967;BME280;17649;51.836;8.330;2023-07-02T10:33:55;100327.06;;;20.87;67.21
30967;BME280;17649;51.836;8.330;2023-07-02T10:36:56;100330.13;;;20.74;69.51
30967;BME280;17649;51.836;8.330;2023-07-02T10:39:57;100326.34;;;20.77;70.79
30967;BME280;17649;51.836;8.330;2023-07-02T10:42:57;100322.25;;;21.17;72.68
30967;BME280;17649;51.836;8.330;2023-07-02T10:45:58;100319.63;;;21.17;68.63
30967;BME280;17649;51.836;8.330;2023-07-02T10:49:00;100327.47;;;21.59;67.37
30967;BME280;17649;51.836;8.330;2023-07-02T10:52:02;100323.50;;;21.47;71.04
30967;BME280;17649;51.836;8.330;2023-07-02T10:55:07;100328.22;;;21.27;68.41
30967;BME280;17649;51.836;8.330;2023-07-02T10:58:09;100322.38;;;21.07;71.41
30967;BME280;17649;51.836;8.330;2023-07-02T11:01:09;100318.91;;;21.57;69.42
30967;BME280;17649;51.836;8.330;2023-07-02T11:04:10;100317.47;;;22.11;69.66
30967;BME280;17649;51.836;8.330;2023-07-02T11:07:10;100323.06;;;22.16;63.27
30967;BME280;17649;51.836;8.330;2023-07-02T11:10:18;100324.72;;;22.17;62.62
30967;BME280;17649;51.836;8.330;2023-07-02T11:13:19;100312.31;;;22.50;69.41
30967;BME280;17649;51.836;8.330;2023-07-02T11:16:28;100321.19;;;23.05;59.76
30967;BME280;17649;51.836;8.330;2023-07-02T11:19:29;100326.47;;;23.05;61.39
30967;BME280;17649;51.836;8.330;2023-07-02T11:22:33;100336.16;;;22.65;62.89
30967;BME280;17649;51.836;8.330;2023-07-02T11:25:33;100339.84;;;22.31;63.21
30967;BME280;17649;51.836;8.330;2023-07-02T11:28:34;100329.94;;;21.85;65.92
30967;BME280;17649;51.836;8.330;2023-07-02T11:31:34;100334.94;;;22.20;67.40
30967;BME280;17649;51.836;8.330;2023-07-02T11:34:35;100339.00;;;22.47;65.63
30967;BME280;17649;51.836;8.330;2023-07-02T11:37:36;100332.19;;;22.69;59.38
30967;BME280;17649;51.836;8.330;2023-07-02T11:40:37;100339.53;;;23.29;59.55
30967;BME280;17649;51.836;8.330;2023-07-02T11:43:37;100328.28;;;25.30;53.88
30967;BME280;17649;51.836;8.330;2023-07-02T11:46:39;100323.22;;;25.71;53.36
30967;BME280;17649;51.836;8.330;2023-07-02T11:49:39;100328.44;;;25.65;49.74
30967;BME280;17649;51.836;8.330;2023-07-02T11:52:39;100307.75;;;26.24;49.94
30967;BME280;17649;51.836;8.330;2023-07-02T11:55:39;100335.28;;;24.72;50.15
30967;BME280;17649;51.836;8.330;2023-07-02T11:58:41;100327.13;;;23.69;55.36
30967;BME280;17649;51.836;8.330;2023-07-02T12:01:42;100331.81;;;24.72;54.77
30967;BME280;17649;51.836;8.330;2023-07-02T12:04:42;100328.69;;;24.01;56.14
30967;BME280;17649;51.836;8.330;2023-07-02T12:07:42;100336.19;;;23.89;58.65
30967;BME280;17649;51.836;8.330;2023-07-02T12:10:43;100329.69;;;23.77;58.30
30967;BME280;17649;51.836;8.330;2023-07-02T12:13:43;100336.78;;;23.54;63.89
30967;BME280;17649;51.836;8.330;2023-07-02T12:16:44;100350.47;;;23.26;62.57
30967;BME280;17649;51.836;8.330;2023-07-02T12:19:44;100347.56;;;23.13;62.24
30967;BME280;17649;51.836;8.330;2023-07-02T12:22:44;100358.06;;;24.44;55.86
30967;BME280;17649;51.836;8.330;2023-07-02T12:25:45;100335.28;;;24.20;53.63
30967;BME280;17649;51.836;8.330;2023-07-02T12:28:45;100348.00;;;24.01;54.64
30967;BME280;17649;51.836;8.330;2023-07-02T12:31:45;100346.13;;;25.43;53.80
30967;BME280;17649;51.836;8.330;2023-07-02T12:34:45;100337.66;;;26.39;49.09
30967;BME280;17649;51.836;8.330;2023-07-02T12:37:50;100361.00;;;24.63;49.44
30967;BME280;17649;51.836;8.330;2023-07-02T12:40:51;100344.66;;;23.62;52.02
30967;BME280;17649;51.836;8.330;2023-07-02T12:43:51;100335.22;;;23.36;54.20
30967;BME280;17649;51.836;8.330;2023-07-02T12:46:52;100349.13;;;23.84;51.53
30967;BME280;17649;51.836;8.330;2023-07-02T12:49:52;100347.28;;;24.07;48.59
30967;BME280;17649;51.836;8.330;2023-07-02T12:52:52;100364.91;;;23.92;49.31
30967;BME280;17649;51.836;8.330;2023-07-02T12:55:54;100348.41;;;24.13;49.01
30967;BME280;17649;51.836;8.330;2023-07-02T12:58:55;100356.97;;;24.97;51.37
30967;BME280;17649;51.836;8.330;2023-07-02T13:01:55;100349.56;;;25.22;47.86
30967;BME280;17649;51.836;8.330;2023-07-02T13:04:55;100344.34;;;26.07;46.41
30967;BME280;17649;51.836;8.330;2023-07-02T13:07:56;100348.03;;;24.83;47.13
30967;BME280;17649;51.836;8.330;2023-07-02T13:10:56;100355.69;;;26.23;46.44
30967;BME280;17649;51.836;8.330;2023-07-02T13:13:56;100351.50;;;27.04;44.65
30967;BME280;17649;51.836;8.330;2023-07-02T13:16:56;100359.25;;;24.41;47.54
30967;BME280;17649;51.836;8.330;2023-07-02T13:19:59;100355.75;;;25.86;48.18
30967;BME280;17649;51.836;8.330;2023-07-02T13:22:59;100359.06;;;26.16;46.29
30967;BME280;17649;51.836;8.330;2023-07-02T13:26:00;100351.84;;;25.82;46.69
30967;BME280;17649;51.836;8.330;2023-07-02T13:29:00;100363.66;;;23.80;48.15
30967;BME280;17649;51.836;8.330;2023-07-02T13:32:01;100370.41;;;22.81;50.06
30967;BME280;17649;51.836;8.330;2023-07-02T13:35:01;100371.66;;;23.41;49.71
30967;BME280;17649;51.836;8.330;2023-07-02T13:38:01;100366.69;;;25.98;43.43
30967;BME280;17649;51.836;8.330;2023-07-02T13:41:04;100379.03;;;27.51;40.09
30967;BME280;17649;51.836;8.330;2023-07-02T13:44:04;100366.66;;;24.60;43.35
30967;BME280;17649;51.836;8.330;2023-07-02T13:47:05;100383.47;;;23.53;46.93
30967;BME280;17649;51.836;8.330;2023-07-02T13:50:06;100380.13;;;24.13;47.53
30967;BME280;17649;51.836;8.330;2023-07-02T13:53:07;100373.00;;;27.09;42.34
30967;BME280;17649;51.836;8.330;2023-07-02T13:56:08;100362.06;;;25.85;43.67
30967;BME280;17649;51.836;8.330;2023-07-02T13:59:08;100370.19;;;25.12;43.92
30967;BME280;17649;51.836;8.330;2023-07-02T14:02:09;100375.69;;;24.28;45.05
30967;BME280;17649;51.836;8.330;2023-07-02T14:05:09;100359.34;;;28.00;43.69
30967;BME280;17649;51.836;8.330;2023-07-02T14:08:09;100349.72;;;28.38;41.17
30967;BME280;17649;51.836;8.330;2023-07-02T14:11:10;100363.41;;;27.96;40.78
30967;BME280;17649;51.836;8.330;2023-07-02T14:14:10;100358.66;;;26.69;39.95
30967;BME280;17649;51.836;8.330;2023-07-02T14:17:11;100364.38;;;24.72;43.77
30967;BME280;17649;51.836;8.330;2023-07-02T14:20:12;100371.91;;;23.54;47.49
30967;BME280;17649;51.836;8.330;2023-07-02T14:23:12;100387.59;;;23.25;50.04
30967;BME280;17649;51.836;8.330;2023-07-02T14:26:12;100386.75;;;23.86;50.39
30967;BME280;17649;51.836;8.330;2023-07-02T14:29:16;100371.03;;;26.06;45.65
30967;BME280;17649;51.836;8.330;2023-07-02T14:32:17;100371.06;;;26.62;44.78
30967;BME280;17649;51.836;8.330;2023-07-02T14:35:17;100373.34;;;25.01;49.70
30967;BME280;17649;51.836;8.330;2023-07-02T14:38:20;100384.72;;;24.57;48.31
30967;BME280;17649;51.836;8.330;2023-07-02T14:41:20;100375.06;;;26.02;48.46
30967;BME280;17649;51.836;8.330;2023-07-02T14:44:21;100364.00;;;28.11;44.46
30967;BME280;17649;51.836;8.330;2023-07-02T14:47:21;100369.38;;;29.15;42.15
30967;BME280;17649;51.836;8.330;2023-07-02T14:50:21;100364.97;;;27.02;43.34
30967;BME280;17649;51.836;8.330;2023-07-02T14:53:22;100372.94;;;24.59;48.17
30967;BME280;17649;51.836;8.330;2023-07-02T14:56:22;100365.66;;;27.18;45.52
30967;BME280;17649;51.836;8.330;2023-07-02T14:59:23;100362.69;;;27.41;46.00
30967;BME280;17649;51.836;8.330;2023-07-02T15:02:23;100364.66;;;28.13;43.70
30967;BME280;17649;51.836;8.330;2023-07-02T15:05:24;100361.84;;;29.44;41.67
30967;BME280;17649;51.836;8.330;2023-07-02T15:08:24;100347.63;;;29.63;40.75
30967;BME280;17649;51.836;8.330;2023-07-02T15:11:25;100353.00;;;30.38;39.05
30967;BME280;17649;51.836;8.330;2023-07-02T15:14:25;100339.22;;;29.91;41.53
30967;BME280;17649;51.836;8.330;2023-07-02T15:17:25;100354.41;;;31.62;38.46
30967;BME280;17649;51.836;8.330;2023-07-02T15:20:26;100361.00;;;30.38;37.02
30967;BME280;17649;51.836;8.330;2023-07-02T15:23:27;100357.53;;;27.26;41.28
30967;BME280;17649;51.836;8.330;2023-07-02T15:26:28;100350.66;;;26.34;44.23
30967;BME280;17649;51.836;8.330;2023-07-02T15:29:28;100360.69;;;27.62;43.10
30967;BME280;17649;51.836;8.330;2023-07-02T15:32:29;100349.00;;;26.61;45.33
30967;BME280;17649;51.836;8.330;2023-07-02T15:35:29;100350.81;;;25.62;46.36
30967;BME280;17649;51.836;8.330;2023-07-02T15:38:29;100354.31;;;24.82;48.41
30967;BME280;17649;51.836;8.330;2023-07-02T15:41:30;100360.72;;;24.44;51.97
30967;BME280;17649;51.836;8.330;2023-07-02T15:44:31;100366.97;;;23.20;56.34